This is the latest recevied weather packets stored in our database for station/object KJ4UBX-11. If no packets are shown the sender has not sent any weather packets the latest 10 day(s).
| Time | Temp. | Humidity | Pressure | Rain* | Wind** | Luminosity | Snow |
|---|---|---|---|---|---|---|---|
| 1778001193 | 21.67° C | 50% | 1005.1 hPa | - | - | - | - |
| 1778000611 | 22.78° C | 50% | 1005.2 hPa | - | - | - | - |
| 1778000028 | 22.78° C | 46% | 1005.3 hPa | - | - | - | - |
| 1777999443 | 21.67° C | 48% | 1005.6 hPa | - | - | - | - |
| 1777998861 | 22.22° C | 47% | 1005.7 hPa | - | - | - | - |
| 1777998278 | 21.67° C | 51% | 1006 hPa | - | - | - | - |
| 1777997695 | 22.22° C | 46% | 1006 hPa | - | - | - | - |
| 1777997112 | 23.33° C | 44% | 1006.1 hPa | - | - | - | - |
| 1777996533 | 23.33° C | 45% | 1006.2 hPa | - | - | - | - |
| 1777995965 | 30.56° C | 33% | 1006.3 hPa | - | - | - | - |
| 1777995384 | 35° C | 25% | 1006.3 hPa | - | - | - | - |
| 1777994800 | 31.67° C | 30% | 1006.5 hPa | - | - | - | - |
| 1777994212 | 31.67° C | 31% | 1006.8 hPa | - | - | - | - |
| 1777993620 | 27.78° C | 36% | 1006.9 hPa | - | - | - | - |
| 1777993025 | 23.33° C | 43% | 1007 hPa | - | - | - | - |
| 1777992441 | 22.78° C | 46% | 1006.9 hPa | - | - | - | - |
| 1777991856 | 21.67° C | 47% | 1006.7 hPa | - | - | - | - |
| 1777991275 | 21.11° C | 49% | 1006.4 hPa | - | - | - | - |
| 1777990701 | 26.11° C | 37% | 1006.2 hPa | - | - | - | - |
| 1777989550 | 33.89° C | 25% | 1006.5 hPa | - | - | - | - |
| 1777988963 | 29.44° C | 31% | 1006.7 hPa | - | - | - | - |
| 1777988384 | 31.11° C | 30% | 1006.7 hPa | - | - | - | - |
| 1777987795 | 30° C | 32% | 1006.8 hPa | - | - | - | - |
| 1777987212 | 30.56° C | 32% | 1007.1 hPa | - | - | - | - |
| 1777986631 | 30.56° C | 32% | 1007.1 hPa | - | - | - | - |
* Rain since midnight (hover to see other rain measurements)
** Current wind speed in m/s (hover to see current wind gust speed)